sensor_id;sensor_type;location;lat;lon;timestamp;P1;durP1;ratioP1;P2;durP2;ratioP2
9042;SDS011;4556;49.150;8.808;2022-07-06T00:00:03;2.43;;;2.23;;
9042;SDS011;4556;49.150;8.808;2022-07-06T00:02:31;2.60;;;2.33;;
9042;SDS011;4556;49.150;8.808;2022-07-06T00:04:58;5.63;;;2.50;;
9042;SDS011;4556;49.150;8.808;2022-07-06T00:07:26;4.93;;;2.10;;
9042;SDS011;4556;49.150;8.808;2022-07-06T00:09:53;3.27;;;2.40;;
9042;SDS011;4556;49.150;8.808;2022-07-06T00:12:20;8.07;;;2.50;;
9042;SDS011;4556;49.150;8.808;2022-07-06T00:14:47;5.20;;;2.70;;
9042;SDS011;4556;49.150;8.808;2022-07-06T00:17:14;3.00;;;2.40;;
9042;SDS011;4556;49.150;8.808;2022-07-06T00:19:42;5.83;;;2.10;;
9042;SDS011;4556;49.150;8.808;2022-07-06T00:22:09;2.83;;;2.00;;
9042;SDS011;4556;49.150;8.808;2022-07-06T00:24:38;2.90;;;1.93;;
9042;SDS011;4556;49.150;8.808;2022-07-06T00:27:05;3.90;;;1.87;;
9042;SDS011;4556;49.150;8.808;2022-07-06T00:29:32;2.77;;;1.80;;
9042;SDS011;4556;49.150;8.808;2022-07-06T00:31:59;3.07;;;1.67;;
9042;SDS011;4556;49.150;8.808;2022-07-06T00:34:26;3.03;;;1.83;;
9042;SDS011;4556;49.150;8.808;2022-07-06T00:36:53;3.53;;;1.87;;
9042;SDS011;4556;49.150;8.808;2022-07-06T00:39:20;2.13;;;1.60;;
9042;SDS011;4556;49.150;8.808;2022-07-06T00:41:50;2.00;;;1.70;;
9042;SDS011;4556;49.150;8.808;2022-07-06T00:44:17;3.87;;;1.90;;
9042;SDS011;4556;49.150;8.808;2022-07-06T00:46:43;1.93;;;1.70;;
9042;SDS011;4556;49.150;8.808;2022-07-06T00:49:10;2.30;;;1.70;;
9042;SDS011;4556;49.150;8.808;2022-07-06T00:51:58;2.87;;;1.67;;
9042;SDS011;4556;49.150;8.808;2022-07-06T00:54:25;3.53;;;1.60;;
9042;SDS011;4556;49.150;8.808;2022-07-06T00:56:56;4.23;;;1.60;;
9042;SDS011;4556;49.150;8.808;2022-07-06T00:59:24;6.23;;;1.57;;
9042;SDS011;4556;49.150;8.808;2022-07-06T01:01:52;2.13;;;1.40;;
9042;SDS011;4556;49.150;8.808;2022-07-06T01:04:19;2.60;;;1.60;;
9042;SDS011;4556;49.150;8.808;2022-07-06T01:06:46;4.00;;;1.60;;
9042;SDS011;4556;49.150;8.808;2022-07-06T01:09:15;4.13;;;1.77;;
9042;SDS011;4556;49.150;8.808;2022-07-06T01:11:43;6.20;;;1.73;;
9042;SDS011;4556;49.150;8.808;2022-07-06T01:14:12;3.53;;;1.60;;
9042;SDS011;4556;49.150;8.808;2022-07-06T01:16:40;5.93;;;1.63;;
9042;SDS011;4556;49.150;8.808;2022-07-06T01:19:07;4.03;;;1.83;;
9042;SDS011;4556;49.150;8.808;2022-07-06T01:21:37;3.83;;;2.13;;
9042;SDS011;4556;49.150;8.808;2022-07-06T01:24:05;3.63;;;1.73;;
9042;SDS011;4556;49.150;8.808;2022-07-06T01:26:32;3.57;;;1.70;;
9042;SDS011;4556;49.150;8.808;2022-07-06T01:28:59;2.37;;;1.60;;
9042;SDS011;4556;49.150;8.808;2022-07-06T01:31:27;4.80;;;1.93;;
9042;SDS011;4556;49.150;8.808;2022-07-06T01:33:55;3.67;;;1.70;;
9042;SDS011;4556;49.150;8.808;2022-07-06T01:36:23;3.93;;;1.90;;
9042;SDS011;4556;49.150;8.808;2022-07-06T01:38:53;2.80;;;1.90;;
9042;SDS011;4556;49.150;8.808;2022-07-06T01:41:22;3.53;;;2.00;;
9042;SDS011;4556;49.150;8.808;2022-07-06T01:43:49;2.73;;;1.63;;
9042;SDS011;4556;49.150;8.808;2022-07-06T01:46:16;2.30;;;1.77;;
9042;SDS011;4556;49.150;8.808;2022-07-06T01:48:44;3.20;;;1.77;;
9042;SDS011;4556;49.150;8.808;2022-07-06T01:51:11;4.57;;;1.90;;
9042;SDS011;4556;49.150;8.808;2022-07-06T01:53:38;3.17;;;2.17;;
9042;SDS011;4556;49.150;8.808;2022-07-06T01:56:08;3.33;;;1.83;;
9042;SDS011;4556;49.150;8.808;2022-07-06T01:58:35;4.13;;;2.20;;
9042;SDS011;4556;49.150;8.808;2022-07-06T02:01:06;4.60;;;2.33;;
9042;SDS011;4556;49.150;8.808;2022-07-06T02:03:34;3.37;;;2.00;;
9042;SDS011;4556;49.150;8.808;2022-07-06T02:06:01;2.57;;;1.90;;
9042;SDS011;4556;49.150;8.808;2022-07-06T02:08:28;6.50;;;2.00;;
9042;SDS011;4556;49.150;8.808;2022-07-06T02:10:55;10.30;;;2.40;;
9042;SDS011;4556;49.150;8.808;2022-07-06T02:13:24;9.27;;;2.40;;
9042;SDS011;4556;49.150;8.808;2022-07-06T02:15:51;3.40;;;2.30;;
9042;SDS011;4556;49.150;8.808;2022-07-06T02:18:18;3.83;;;2.27;;
9042;SDS011;4556;49.150;8.808;2022-07-06T02:20:45;3.27;;;2.20;;
9042;SDS011;4556;49.150;8.808;2022-07-06T02:23:12;4.17;;;2.50;;
9042;SDS011;4556;49.150;8.808;2022-07-06T02:25:40;3.33;;;1.93;;
9042;SDS011;4556;49.150;8.808;2022-07-06T02:28:07;5.53;;;2.30;;
9042;SDS011;4556;49.150;8.808;2022-07-06T02:30:36;3.20;;;2.13;;
9042;SDS011;4556;49.150;8.808;2022-07-06T02:33:02;4.53;;;2.30;;
9042;SDS011;4556;49.150;8.808;2022-07-06T02:35:29;3.40;;;2.30;;
9042;SDS011;4556;49.150;8.808;2022-07-06T02:37:57;4.30;;;2.40;;
9042;SDS011;4556;49.150;8.808;2022-07-06T02:40:24;2.93;;;2.23;;
9042;SDS011;4556;49.150;8.808;2022-07-06T02:42:51;3.80;;;2.27;;
9042;SDS011;4556;49.150;8.808;2022-07-06T02:45:18;4.63;;;2.73;;
9042;SDS011;4556;49.150;8.808;2022-07-06T02:47:53;2.87;;;2.47;;
9042;SDS011;4556;49.150;8.808;2022-07-06T02:50:21;3.97;;;2.30;;
9042;SDS011;4556;49.150;8.808;2022-07-06T02:52:48;2.43;;;2.00;;
9042;SDS011;4556;49.150;8.808;2022-07-06T02:55:15;3.70;;;2.60;;
9042;SDS011;4556;49.150;8.808;2022-07-06T02:57:42;5.93;;;2.37;;
9042;SDS011;4556;49.150;8.808;2022-07-06T03:00:09;3.07;;;2.33;;
9042;SDS011;4556;49.150;8.808;2022-07-06T03:02:38;7.87;;;2.23;;
9042;SDS011;4556;49.150;8.808;2022-07-06T03:05:07;9.03;;;2.73;;
9042;SDS011;4556;49.150;8.808;2022-07-06T03:07:34;7.13;;;2.70;;
9042;SDS011;4556;49.150;8.808;2022-07-06T03:10:01;2.97;;;2.70;;
9042;SDS011;4556;49.150;8.808;2022-07-06T03:12:28;5.67;;;2.63;;
9042;SDS011;4556;49.150;8.808;2022-07-06T03:14:55;2.70;;;2.50;;
9042;SDS011;4556;49.150;8.808;2022-07-06T03:17:22;5.43;;;3.00;;
9042;SDS011;4556;49.150;8.808;2022-07-06T03:19:50;4.17;;;3.00;;
9042;SDS011;4556;49.150;8.808;2022-07-06T03:22:19;6.33;;;2.73;;
9042;SDS011;4556;49.150;8.808;2022-07-06T03:24:46;4.10;;;2.87;;
9042;SDS011;4556;49.150;8.808;2022-07-06T03:27:13;5.53;;;2.83;;
9042;SDS011;4556;49.150;8.808;2022-07-06T03:29:41;6.67;;;3.20;;
9042;SDS011;4556;49.150;8.808;2022-07-06T03:32:08;2.60;;;2.40;;
9042;SDS011;4556;49.150;8.808;2022-07-06T03:34:35;4.53;;;3.13;;
9042;SDS011;4556;49.150;8.808;2022-07-06T03:37:02;6.70;;;3.00;;
9042;SDS011;4556;49.150;8.808;2022-07-06T03:39:32;4.03;;;2.83;;
9042;SDS011;4556;49.150;8.808;2022-07-06T03:41:59;5.20;;;3.27;;
9042;SDS011;4556;49.150;8.808;2022-07-06T03:44:26;5.33;;;2.77;;
9042;SDS011;4556;49.150;8.808;2022-07-06T03:46:53;4.10;;;3.30;;
9042;SDS011;4556;49.150;8.808;2022-07-06T03:49:20;3.90;;;2.83;;
9042;SDS011;4556;49.150;8.808;2022-07-06T03:51:51;7.90;;;3.30;;
9042;SDS011;4556;49.150;8.808;2022-07-06T03:54:19;5.30;;;2.90;;
9042;SDS011;4556;49.150;8.808;2022-07-06T03:56:47;6.47;;;3.13;;
9042;SDS011;4556;49.150;8.808;2022-07-06T03:59:14;4.30;;;3.13;;
9042;SDS011;4556;49.150;8.808;2022-07-06T04:01:42;4.43;;;3.10;;
9042;SDS011;4556;49.150;8.808;2022-07-06T04:04:09;4.00;;;3.13;;
9042;SDS011;4556;49.150;8.808;2022-07-06T04:06:36;5.97;;;3.67;;
9042;SDS011;4556;49.150;8.808;2022-07-06T04:09:03;8.50;;;3.40;;
9042;SDS011;4556;49.150;8.808;2022-07-06T04:11:30;3.93;;;3.20;;
9042;SDS011;4556;49.150;8.808;2022-07-06T04:13:58;3.47;;;3.03;;
9042;SDS011;4556;49.150;8.808;2022-07-06T04:16:25;5.77;;;3.30;;
9042;SDS011;4556;49.150;8.808;2022-07-06T04:18:52;5.03;;;3.30;;
9042;SDS011;4556;49.150;8.808;2022-07-06T04:21:19;3.57;;;3.20;;
9042;SDS011;4556;49.150;8.808;2022-07-06T04:23:46;6.03;;;3.23;;
9042;SDS011;4556;49.150;8.808;2022-07-06T04:26:13;5.73;;;3.10;;
9042;SDS011;4556;49.150;8.808;2022-07-06T04:28:40;6.43;;;2.97;;
9042;SDS011;4556;49.150;8.808;2022-07-06T04:31:08;6.00;;;3.10;;
9042;SDS011;4556;49.150;8.808;2022-07-06T04:33:36;5.53;;;2.80;;
9042;SDS011;4556;49.150;8.808;2022-07-06T04:36:03;6.07;;;3.27;;
9042;SDS011;4556;49.150;8.808;2022-07-06T04:38:30;4.23;;;2.87;;
9042;SDS011;4556;49.150;8.808;2022-07-06T04:40:58;5.77;;;2.90;;
9042;SDS011;4556;49.150;8.808;2022-07-06T04:43:24;7.30;;;2.70;;
9042;SDS011;4556;49.150;8.808;2022-07-06T04:45:51;5.20;;;2.50;;
9042;SDS011;4556;49.150;8.808;2022-07-06T04:48:20;4.67;;;2.60;;
9042;SDS011;4556;49.150;8.808;2022-07-06T04:50:47;3.70;;;2.80;;
9042;SDS011;4556;49.150;8.808;2022-07-06T04:53:14;5.87;;;2.87;;
9042;SDS011;4556;49.150;8.808;2022-07-06T04:55:41;3.43;;;2.40;;
9042;SDS011;4556;49.150;8.808;2022-07-06T04:58:08;3.93;;;2.73;;
9042;SDS011;4556;49.150;8.808;2022-07-06T05:00:35;3.63;;;2.33;;
9042;SDS011;4556;49.150;8.808;2022-07-06T05:03:02;4.03;;;2.40;;
9042;SDS011;4556;49.150;8.808;2022-07-06T05:05:31;4.03;;;2.47;;
9042;SDS011;4556;49.150;8.808;2022-07-06T05:07:58;2.70;;;2.20;;
9042;SDS011;4556;49.150;8.808;2022-07-06T05:10:25;4.20;;;2.43;;
9042;SDS011;4556;49.150;8.808;2022-07-06T05:12:52;4.67;;;2.67;;
9042;SDS011;4556;49.150;8.808;2022-07-06T05:15:20;3.60;;;2.43;;
9042;SDS011;4556;49.150;8.808;2022-07-06T05:17:47;5.87;;;2.63;;
9042;SDS011;4556;49.150;8.808;2022-07-06T05:20:14;3.40;;;1.83;;
9042;SDS011;4556;49.150;8.808;2022-07-06T05:22:42;4.43;;;2.20;;
9042;SDS011;4556;49.150;8.808;2022-07-06T05:25:09;4.30;;;2.40;;
9042;SDS011;4556;49.150;8.808;2022-07-06T05:27:36;2.97;;;2.23;;
9042;SDS011;4556;49.150;8.808;2022-07-06T05:30:04;2.87;;;2.10;;
9042;SDS011;4556;49.150;8.808;2022-07-06T05:32:32;3.53;;;2.37;;
9042;SDS011;4556;49.150;8.808;2022-07-06T05:34:59;4.23;;;2.10;;
9042;SDS011;4556;49.150;8.808;2022-07-06T05:37:26;7.03;;;2.50;;
9042;SDS011;4556;49.150;8.808;2022-07-06T05:39:55;3.97;;;2.10;;
9042;SDS011;4556;49.150;8.808;2022-07-06T05:42:22;5.67;;;2.00;;
9042;SDS011;4556;49.150;8.808;2022-07-06T05:44:48;3.63;;;2.00;;
9042;SDS011;4556;49.150;8.808;2022-07-06T05:47:15;3.43;;;2.03;;
9042;SDS011;4556;49.150;8.808;2022-07-06T05:50:00;2.03;;;1.73;;
9042;SDS011;4556;49.150;8.808;2022-07-06T05:52:39;4.60;;;2.20;;
9042;SDS011;4556;49.150;8.808;2022-07-06T05:55:09;3.67;;;1.90;;
9042;SDS011;4556;49.150;8.808;2022-07-06T05:57:36;3.33;;;2.20;;
9042;SDS011;4556;49.150;8.808;2022-07-06T06:00:04;2.70;;;1.70;;
9042;SDS011;4556;49.150;8.808;2022-07-06T06:02:39;5.53;;;2.13;;
9042;SDS011;4556;49.150;8.808;2022-07-06T06:05:07;3.73;;;1.90;;
9042;SDS011;4556;49.150;8.808;2022-07-06T06:07:36;5.13;;;2.27;;
9042;SDS011;4556;49.150;8.808;2022-07-06T06:10:03;3.07;;;1.90;;
9042;SDS011;4556;49.150;8.808;2022-07-06T06:12:33;3.73;;;2.20;;
9042;SDS011;4556;49.150;8.808;2022-07-06T06:15:01;2.80;;;2.07;;
9042;SDS011;4556;49.150;8.808;2022-07-06T06:17:28;3.13;;;1.90;;
9042;SDS011;4556;49.150;8.808;2022-07-06T06:19:55;2.80;;;2.00;;
9042;SDS011;4556;49.150;8.808;2022-07-06T06:22:22;4.47;;;2.20;;
9042;SDS011;4556;49.150;8.808;2022-07-06T06:24:49;4.47;;;1.90;;
9042;SDS011;4556;49.150;8.808;2022-07-06T06:27:16;6.73;;;2.20;;
9042;SDS011;4556;49.150;8.808;2022-07-06T06:29:46;6.33;;;2.13;;
9042;SDS011;4556;49.150;8.808;2022-07-06T06:32:13;4.27;;;1.97;;
9042;SDS011;4556;49.150;8.808;2022-07-06T06:34:40;3.00;;;2.03;;
9042;SDS011;4556;49.150;8.808;2022-07-06T06:37:07;6.77;;;2.23;;
9042;SDS011;4556;49.150;8.808;2022-07-06T06:39:34;5.40;;;1.90;;
9042;SDS011;4556;49.150;8.808;2022-07-06T06:42:01;3.33;;;1.73;;
9042;SDS011;4556;49.150;8.808;2022-07-06T06:44:28;3.50;;;2.10;;
9042;SDS011;4556;49.150;8.808;2022-07-06T06:46:57;3.53;;;1.77;;
9042;SDS011;4556;49.150;8.808;2022-07-06T06:49:24;5.03;;;1.80;;
9042;SDS011;4556;49.150;8.808;2022-07-06T06:51:51;2.80;;;1.50;;
9042;SDS011;4556;49.150;8.808;2022-07-06T06:54:18;4.90;;;1.57;;
9042;SDS011;4556;49.150;8.808;2022-07-06T06:56:45;3.07;;;1.77;;
9042;SDS011;4556;49.150;8.808;2022-07-06T06:59:12;4.90;;;1.77;;
9042;SDS011;4556;49.150;8.808;2022-07-06T07:01:39;3.53;;;1.83;;
9042;SDS011;4556;49.150;8.808;2022-07-06T07:04:08;5.37;;;1.53;;
9042;SDS011;4556;49.150;8.808;2022-07-06T07:06:35;2.07;;;1.60;;
9042;SDS011;4556;49.150;8.808;2022-07-06T07:09:02;3.87;;;1.80;;
9042;SDS011;4556;49.150;8.808;2022-07-06T07:11:30;4.87;;;1.80;;
9042;SDS011;4556;49.150;8.808;2022-07-06T07:13:57;5.77;;;1.90;;
9042;SDS011;4556;49.150;8.808;2022-07-06T07:16:25;4.30;;;2.20;;
9042;SDS011;4556;49.150;8.808;2022-07-06T07:18:52;4.37;;;1.80;;
9042;SDS011;4556;49.150;8.808;2022-07-06T07:21:21;3.23;;;2.30;;
9042;SDS011;4556;49.150;8.808;2022-07-06T07:23:48;5.60;;;2.10;;
9042;SDS011;4556;49.150;8.808;2022-07-06T07:26:15;3.87;;;2.03;;
9042;SDS011;4556;49.150;8.808;2022-07-06T07:28:43;4.37;;;1.80;;
9042;SDS011;4556;49.150;8.808;2022-07-06T07:31:10;5.77;;;2.13;;
9042;SDS011;4556;49.150;8.808;2022-07-06T07:33:37;7.37;;;2.60;;
9042;SDS011;4556;49.150;8.808;2022-07-06T07:36:04;3.57;;;2.30;;
9042;SDS011;4556;49.150;8.808;2022-07-06T07:38:33;5.57;;;2.27;;
9042;SDS011;4556;49.150;8.808;2022-07-06T07:41:00;4.10;;;2.03;;
9042;SDS011;4556;49.150;8.808;2022-07-06T07:43:27;4.43;;;2.43;;
9042;SDS011;4556;49.150;8.808;2022-07-06T07:45:54;5.77;;;2.33;;
9042;SDS011;4556;49.150;8.808;2022-07-06T07:48:21;5.43;;;2.23;;
9042;SDS011;4556;49.150;8.808;2022-07-06T07:50:48;5.77;;;2.20;;
9042;SDS011;4556;49.150;8.808;2022-07-06T07:53:15;6.70;;;2.67;;
9042;SDS011;4556;49.150;8.808;2022-07-06T07:55:44;4.77;;;2.20;;
9042;SDS011;4556;49.150;8.808;2022-07-06T07:58:11;4.37;;;1.83;;
9042;SDS011;4556;49.150;8.808;2022-07-06T08:00:38;4.00;;;2.03;;
9042;SDS011;4556;49.150;8.808;2022-07-06T08:03:06;3.87;;;2.53;;
9042;SDS011;4556;49.150;8.808;2022-07-06T08:05:33;3.47;;;1.80;;
9042;SDS011;4556;49.150;8.808;2022-07-06T08:07:59;5.73;;;2.40;;
9042;SDS011;4556;49.150;8.808;2022-07-06T08:10:27;4.87;;;2.17;;
9042;SDS011;4556;49.150;8.808;2022-07-06T08:12:55;4.00;;;1.83;;
9042;SDS011;4556;49.150;8.808;2022-07-06T08:15:22;3.37;;;1.80;;
9042;SDS011;4556;49.150;8.808;2022-07-06T08:17:50;3.27;;;2.00;;
9042;SDS011;4556;49.150;8.808;2022-07-06T08:20:17;3.87;;;2.20;;
9042;SDS011;4556;49.150;8.808;2022-07-06T08:22:44;7.17;;;2.50;;
9042;SDS011;4556;49.150;8.808;2022-07-06T08:25:11;7.57;;;2.10;;
9042;SDS011;4556;49.150;8.808;2022-07-06T08:27:38;6.57;;;2.43;;
9042;SDS011;4556;49.150;8.808;2022-07-06T08:30:08;5.53;;;2.60;;
9042;SDS011;4556;49.150;8.808;2022-07-06T08:32:36;6.10;;;2.33;;
9042;SDS011;4556;49.150;8.808;2022-07-06T08:35:08;5.27;;;2.00;;
9042;SDS011;4556;49.150;8.808;2022-07-06T08:37:37;6.63;;;2.20;;
9042;SDS011;4556;49.150;8.808;2022-07-06T08:40:05;3.97;;;2.03;;
9042;SDS011;4556;49.150;8.808;2022-07-06T08:42:33;4.50;;;2.60;;
9042;SDS011;4556;49.150;8.808;2022-07-06T08:45:03;4.77;;;2.20;;
9042;SDS011;4556;49.150;8.808;2022-07-06T08:47:33;4.43;;;1.80;;
9042;SDS011;4556;49.150;8.808;2022-07-06T08:50:09;4.80;;;2.27;;
9042;SDS011;4556;49.150;8.808;2022-07-06T08:52:37;5.77;;;2.30;;
9042;SDS011;4556;49.150;8.808;2022-07-06T08:55:06;5.63;;;2.13;;
9042;SDS011;4556;49.150;8.808;2022-07-06T08:57:48;5.07;;;2.20;;
9042;SDS011;4556;49.150;8.808;2022-07-06T09:00:15;4.73;;;2.30;;
9042;SDS011;4556;49.150;8.808;2022-07-06T09:02:43;6.20;;;2.33;;
9042;SDS011;4556;49.150;8.808;2022-07-06T09:05:11;5.27;;;2.40;;
9042;SDS011;4556;49.150;8.808;2022-07-06T09:07:47;4.53;;;2.00;;
9042;SDS011;4556;49.150;8.808;2022-07-06T09:10:22;3.13;;;2.00;;
9042;SDS011;4556;49.150;8.808;2022-07-06T09:12:49;5.87;;;2.23;;
9042;SDS011;4556;49.150;8.808;2022-07-06T09:15:16;3.00;;;1.97;;
9042;SDS011;4556;49.150;8.808;2022-07-06T09:20:39;9.00;;;3.00;;
9042;SDS011;4556;49.150;8.808;2022-07-06T09:42:00;4.67;;;2.30;;
9042;SDS011;4556;49.150;8.808;2022-07-06T09:47:12;3.27;;;2.40;;
9042;SDS011;4556;49.150;8.808;2022-07-06T09:49:44;4.97;;;2.70;;
9042;SDS011;4556;49.150;8.808;2022-07-06T09:52:20;6.83;;;2.83;;
9042;SDS011;4556;49.150;8.808;2022-07-06T09:55:08;4.60;;;3.00;;
9042;SDS011;4556;49.150;8.808;2022-07-06T09:57:53;5.30;;;2.90;;
9042;SDS011;4556;49.150;8.808;2022-07-06T10:03:05;4.33;;;3.00;;
9042;SDS011;4556;49.150;8.808;2022-07-06T10:08:51;4.13;;;2.97;;
9042;SDS011;4556;49.150;8.808;2022-07-06T11:03:31;6.80;;;2.10;;
9042;SDS011;4556;49.150;8.808;2022-07-06T11:06:00;3.97;;;2.07;;
9042;SDS011;4556;49.150;8.808;2022-07-06T11:08:43;4.73;;;2.30;;
9042;SDS011;4556;49.150;8.808;2022-07-06T11:11:22;3.53;;;2.00;;
9042;SDS011;4556;49.150;8.808;2022-07-06T11:14:06;5.10;;;2.27;;
9042;SDS011;4556;49.150;8.808;2022-07-06T11:17:00;4.83;;;1.73;;
9042;SDS011;4556;49.150;8.808;2022-07-06T11:19:29;6.33;;;1.60;;
9042;SDS011;4556;49.150;8.808;2022-07-06T11:21:56;5.00;;;2.00;;
9042;SDS011;4556;49.150;8.808;2022-07-06T11:24:42;3.73;;;2.00;;
9042;SDS011;4556;49.150;8.808;2022-07-06T11:27:33;2.80;;;1.80;;
9042;SDS011;4556;49.150;8.808;2022-07-06T11:32:47;6.30;;;2.17;;
9042;SDS011;4556;49.150;8.808;2022-07-06T11:35:20;6.10;;;1.90;;
9042;SDS011;4556;49.150;8.808;2022-07-06T11:37:51;3.33;;;1.40;;
9042;SDS011;4556;49.150;8.808;2022-07-06T11:40:23;3.97;;;1.77;;
9042;SDS011;4556;49.150;8.808;2022-07-06T11:42:52;4.50;;;1.93;;
9042;SDS011;4556;49.150;8.808;2022-07-06T11:45:25;4.33;;;1.73;;
9042;SDS011;4556;49.150;8.808;2022-07-06T11:50:43;4.53;;;1.60;;
9042;SDS011;4556;49.150;8.808;2022-07-06T11:53:23;6.40;;;1.83;;
9042;SDS011;4556;49.150;8.808;2022-07-06T11:55:51;5.70;;;1.60;;
9042;SDS011;4556;49.150;8.808;2022-07-06T11:58:18;4.27;;;1.80;;
9042;SDS011;4556;49.150;8.808;2022-07-06T12:01:03;8.13;;;1.90;;
9042;SDS011;4556;49.150;8.808;2022-07-06T12:03:32;2.87;;;1.40;;
9042;SDS011;4556;49.150;8.808;2022-07-06T12:06:00;3.63;;;1.60;;
9042;SDS011;4556;49.150;8.808;2022-07-06T12:08:27;3.33;;;1.47;;
9042;SDS011;4556;49.150;8.808;2022-07-06T12:10:54;5.37;;;1.90;;
9042;SDS011;4556;49.150;8.808;2022-07-06T12:13:22;4.30;;;1.57;;
9042;SDS011;4556;49.150;8.808;2022-07-06T12:15:50;7.23;;;1.87;;
9042;SDS011;4556;49.150;8.808;2022-07-06T12:18:16;3.87;;;1.60;;
9042;SDS011;4556;49.150;8.808;2022-07-06T12:20:45;3.37;;;1.40;;
9042;SDS011;4556;49.150;8.808;2022-07-06T12:23:12;5.60;;;1.47;;
9042;SDS011;4556;49.150;8.808;2022-07-06T12:25:39;4.13;;;1.47;;
9042;SDS011;4556;49.150;8.808;2022-07-06T12:28:07;6.00;;;1.30;;
9042;SDS011;4556;49.150;8.808;2022-07-06T12:30:54;3.83;;;1.60;;
9042;SDS011;4556;49.150;8.808;2022-07-06T12:33:21;4.00;;;1.33;;
9042;SDS011;4556;49.150;8.808;2022-07-06T12:35:54;2.23;;;1.23;;
9042;SDS011;4556;49.150;8.808;2022-07-06T12:38:21;3.97;;;1.83;;
9042;SDS011;4556;49.150;8.808;2022-07-06T12:40:49;2.60;;;1.30;;
9042;SDS011;4556;49.150;8.808;2022-07-06T12:48:50;1.93;;;1.20;;
9042;SDS011;4556;49.150;8.808;2022-07-06T12:51:19;2.90;;;1.10;;
9042;SDS011;4556;49.150;8.808;2022-07-06T12:53:46;1.63;;;1.20;;
9042;SDS011;4556;49.150;8.808;2022-07-06T12:56:13;2.33;;;1.40;;
9042;SDS011;4556;49.150;8.808;2022-07-06T12:58:54;4.37;;;1.40;;
9042;SDS011;4556;49.150;8.808;2022-07-06T13:01:22;3.13;;;1.20;;
9042;SDS011;4556;49.150;8.808;2022-07-06T13:03:53;4.30;;;1.63;;
9042;SDS011;4556;49.150;8.808;2022-07-06T13:06:30;4.97;;;1.73;;
9042;SDS011;4556;49.150;8.808;2022-07-06T13:08:59;3.47;;;1.30;;
9042;SDS011;4556;49.150;8.808;2022-07-06T13:11:29;3.23;;;1.20;;
9042;SDS011;4556;49.150;8.808;2022-07-06T13:13:58;2.87;;;1.30;;
9042;SDS011;4556;49.150;8.808;2022-07-06T13:16:25;2.33;;;1.10;;
9042;SDS011;4556;49.150;8.808;2022-07-06T13:18:59;2.47;;;1.20;;
9042;SDS011;4556;49.150;8.808;2022-07-06T13:21:26;3.13;;;1.20;;
9042;SDS011;4556;49.150;8.808;2022-07-06T13:23:55;2.50;;;1.10;;
9042;SDS011;4556;49.150;8.808;2022-07-06T13:26:23;3.93;;;1.20;;
9042;SDS011;4556;49.150;8.808;2022-07-06T13:28:50;1.83;;;1.20;;
9042;SDS011;4556;49.150;8.808;2022-07-06T13:31:17;1.80;;;1.10;;
9042;SDS011;4556;49.150;8.808;2022-07-06T13:33:45;3.30;;;1.30;;
9042;SDS011;4556;49.150;8.808;2022-07-06T13:36:12;3.57;;;1.60;;
9042;SDS011;4556;49.150;8.808;2022-07-06T13:38:41;3.13;;;1.23;;
9042;SDS011;4556;49.150;8.808;2022-07-06T13:41:11;2.00;;;1.20;;
9042;SDS011;4556;49.150;8.808;2022-07-06T13:43:38;2.77;;;1.13;;
9042;SDS011;4556;49.150;8.808;2022-07-06T13:46:06;2.20;;;1.13;;
9042;SDS011;4556;49.150;8.808;2022-07-06T13:48:37;2.90;;;1.23;;
9042;SDS011;4556;49.150;8.808;2022-07-06T13:51:15;1.57;;;1.20;;
9042;SDS011;4556;49.150;8.808;2022-07-06T13:53:52;1.50;;;1.00;;
9042;SDS011;4556;49.150;8.808;2022-07-06T13:56:21;2.87;;;1.10;;
9042;SDS011;4556;49.150;8.808;2022-07-06T13:58:53;5.23;;;1.23;;
9042;SDS011;4556;49.150;8.808;2022-07-06T14:01:20;3.07;;;1.27;;
9042;SDS011;4556;49.150;8.808;2022-07-06T14:03:48;1.60;;;0.90;;
9042;SDS011;4556;49.150;8.808;2022-07-06T14:06:15;3.07;;;1.10;;
9042;SDS011;4556;49.150;8.808;2022-07-06T14:08:42;1.80;;;1.00;;
9042;SDS011;4556;49.150;8.808;2022-07-06T14:11:16;1.63;;;1.10;;
9042;SDS011;4556;49.150;8.808;2022-07-06T14:13:45;3.70;;;1.43;;
9042;SDS011;4556;49.150;8.808;2022-07-06T14:16:12;1.90;;;1.20;;
9042;SDS011;4556;49.150;8.808;2022-07-06T14:18:40;1.37;;;0.90;;
9042;SDS011;4556;49.150;8.808;2022-07-06T14:21:08;1.60;;;1.03;;
9042;SDS011;4556;49.150;8.808;2022-07-06T14:23:37;1.50;;;1.13;;
9042;SDS011;4556;49.150;8.808;2022-07-06T14:26:04;3.17;;;1.17;;
9042;SDS011;4556;49.150;8.808;2022-07-06T14:28:33;1.10;;;1.00;;
9042;SDS011;4556;49.150;8.808;2022-07-06T14:31:01;1.83;;;1.00;;
9042;SDS011;4556;49.150;8.808;2022-07-06T14:33:29;2.23;;;1.00;;
9042;SDS011;4556;49.150;8.808;2022-07-06T14:35:56;2.67;;;1.20;;
9042;SDS011;4556;49.150;8.808;2022-07-06T14:38:24;2.00;;;0.90;;
9042;SDS011;4556;49.150;8.808;2022-07-06T14:40:52;2.83;;;1.23;;
9042;SDS011;4556;49.150;8.808;2022-07-06T14:43:20;2.00;;;1.20;;
9042;SDS011;4556;49.150;8.808;2022-07-06T14:45:47;1.73;;;1.03;;
9042;SDS011;4556;49.150;8.808;2022-07-06T14:48:16;4.90;;;1.27;;
9042;SDS011;4556;49.150;8.808;2022-07-06T14:50:43;5.30;;;1.17;;
9042;SDS011;4556;49.150;8.808;2022-07-06T14:53:10;1.47;;;1.07;;
9042;SDS011;4556;49.150;8.808;2022-07-06T14:55:37;1.37;;;1.00;;
9042;SDS011;4556;49.150;8.808;2022-07-06T14:58:05;8.30;;;1.50;;
9042;SDS011;4556;49.150;8.808;2022-07-06T15:00:32;1.53;;;1.10;;
9042;SDS011;4556;49.150;8.808;2022-07-06T15:03:02;1.63;;;1.20;;
9042;SDS011;4556;49.150;8.808;2022-07-06T15:05:30;5.03;;;1.50;;
9042;SDS011;4556;49.150;8.808;2022-07-06T15:07:58;1.93;;;1.30;;
9042;SDS011;4556;49.150;8.808;2022-07-06T15:10:31;3.07;;;1.30;;
9042;SDS011;4556;49.150;8.808;2022-07-06T15:12:58;4.10;;;1.40;;
9042;SDS011;4556;49.150;8.808;2022-07-06T15:15:25;1.90;;;1.30;;
9042;SDS011;4556;49.150;8.808;2022-07-06T15:17:52;3.93;;;1.30;;
9042;SDS011;4556;49.150;8.808;2022-07-06T15:20:19;2.20;;;1.60;;
9042;SDS011;4556;49.150;8.808;2022-07-06T15:22:49;2.03;;;1.50;;
9042;SDS011;4556;49.150;8.808;2022-07-06T15:25:16;2.57;;;1.30;;
9042;SDS011;4556;49.150;8.808;2022-07-06T15:27:44;2.53;;;1.53;;
9042;SDS011;4556;49.150;8.808;2022-07-06T15:30:12;2.43;;;1.30;;
9042;SDS011;4556;49.150;8.808;2022-07-06T15:32:43;4.90;;;1.90;;
9042;SDS011;4556;49.150;8.808;2022-07-06T15:35:10;2.70;;;1.90;;
9042;SDS011;4556;49.150;8.808;2022-07-06T15:37:38;3.40;;;1.80;;
9042;SDS011;4556;49.150;8.808;2022-07-06T15:40:09;2.47;;;1.80;;
9042;SDS011;4556;49.150;8.808;2022-07-06T15:42:41;2.57;;;2.00;;
9042;SDS011;4556;49.150;8.808;2022-07-06T15:45:08;2.00;;;1.80;;
9042;SDS011;4556;49.150;8.808;2022-07-06T15:47:36;5.27;;;1.83;;
9042;SDS011;4556;49.150;8.808;2022-07-06T15:50:07;3.03;;;1.90;;
9042;SDS011;4556;49.150;8.808;2022-07-06T15:52:37;2.40;;;1.93;;
9042;SDS011;4556;49.150;8.808;2022-07-06T15:55:10;4.17;;;2.10;;
9042;SDS011;4556;49.150;8.808;2022-07-06T15:57:38;3.97;;;1.80;;
9042;SDS011;4556;49.150;8.808;2022-07-06T16:00:05;4.60;;;1.83;;
9042;SDS011;4556;49.150;8.808;2022-07-06T16:02:33;2.60;;;1.57;;
9042;SDS011;4556;49.150;8.808;2022-07-06T16:05:00;3.43;;;1.60;;
9042;SDS011;4556;49.150;8.808;2022-07-06T16:07:27;2.50;;;1.70;;
9042;SDS011;4556;49.150;8.808;2022-07-06T16:09:54;3.00;;;1.80;;
9042;SDS011;4556;49.150;8.808;2022-07-06T16:12:23;3.70;;;1.90;;
9042;SDS011;4556;49.150;8.808;2022-07-06T16:14:50;3.20;;;1.50;;
9042;SDS011;4556;49.150;8.808;2022-07-06T16:17:18;4.70;;;1.80;;
9042;SDS011;4556;49.150;8.808;2022-07-06T16:19:45;2.43;;;1.70;;
9042;SDS011;4556;49.150;8.808;2022-07-06T16:22:11;3.40;;;1.70;;
9042;SDS011;4556;49.150;8.808;2022-07-06T16:24:40;2.67;;;1.40;;
9042;SDS011;4556;49.150;8.808;2022-07-06T16:27:07;2.70;;;1.50;;
9042;SDS011;4556;49.150;8.808;2022-07-06T16:29:36;2.07;;;1.50;;
9042;SDS011;4556;49.150;8.808;2022-07-06T16:32:04;3.70;;;1.53;;
9042;SDS011;4556;49.150;8.808;2022-07-06T16:34:31;1.40;;;1.30;;
9042;SDS011;4556;49.150;8.808;2022-07-06T16:36:58;2.83;;;1.60;;
9042;SDS011;4556;49.150;8.808;2022-07-06T16:39:26;2.20;;;1.33;;
9042;SDS011;4556;49.150;8.808;2022-07-06T16:41:53;3.40;;;1.47;;
9042;SDS011;4556;49.150;8.808;2022-07-06T16:44:20;2.40;;;1.40;;
9042;SDS011;4556;49.150;8.808;2022-07-06T16:46:49;3.07;;;1.70;;
9042;SDS011;4556;49.150;8.808;2022-07-06T16:49:16;4.20;;;1.17;;
9042;SDS011;4556;49.150;8.808;2022-07-06T16:51:44;2.40;;;1.13;;
9042;SDS011;4556;49.150;8.808;2022-07-06T16:54:13;5.50;;;1.27;;
9042;SDS011;4556;49.150;8.808;2022-07-06T16:56:41;1.93;;;1.30;;